Time;durP1;ratioP1;P1;durP2;ratioP2;P2;SDS_P1;SDS_P2;PMS_P1;PMS_P2;Temp;Humidity;BMP_temperature;BMP_pressure;BME280_temperature;BME280_humidity;BME280_pressure;Samples;Min_cycle;Max_cycle;Signal;HPM_P1;HPM_P2
2022/08/25 00:00:49;;;;;;;12.70;8.40;;;;;;;16.91;100.00;101213.38;5044102;28;20210;-71
2022/08/25 00:03:16;;;;;;;12.30;8.10;;;;;;;16.88;100.00;101213.50;5042965;28;20219;-74
2022/08/25 00:05:42;;;;;;;12.73;8.70;;;;;;;16.90;100.00;101216.94;5043842;28;20478;-74
2022/08/25 00:08:09;;;;;;;11.90;8.10;;;;;;;16.87;100.00;101217.94;5062797;28;20238;-73
2022/08/25 00:10:37;;;;;;;10.87;7.97;;;;;;;16.87;100.00;101214.44;5044235;28;20207;-70
2022/08/25 00:13:05;;;;;;;13.23;8.77;;;;;;;16.86;100.00;101210.09;5043723;28;20230;-71
2022/08/25 00:15:32;;;;;;;12.67;8.20;;;;;;;16.82;100.00;101219.88;5050596;28;20272;-74
2022/08/25 00:18:00;;;;;;;12.70;8.73;;;;;;;16.78;100.00;101221.78;5042845;28;20203;-70
2022/08/25 00:20:27;;;;;;;13.10;8.50;;;;;;;16.77;100.00;101212.16;5045506;28;20207;-73
2022/08/25 00:22:54;;;;;;;14.63;9.03;;;;;;;16.77;100.00;101214.78;5058272;28;20210;-75
2022/08/25 00:25:22;;;;;;;11.77;7.93;;;;;;;16.74;100.00;101214.91;5038278;28;20211;-71
2022/08/25 00:27:49;;;;;;;11.97;8.40;;;;;;;16.73;100.00;101213.22;5047558;28;20210;-71
2022/08/25 00:30:17;;;;;;;11.50;8.20;;;;;;;16.72;100.00;101216.75;5049704;28;20198;-71
2022/08/25 00:32:44;;;;;;;14.50;8.90;;;;;;;16.73;100.00;101215.00;5050073;28;20205;-71
2022/08/25 00:35:12;;;;;;;13.27;8.23;;;;;;;16.72;100.00;101215.91;5049528;28;20286;-73
2022/08/25 00:37:38;;;;;;;13.00;8.43;;;;;;;16.72;100.00;101213.28;5041100;28;20207;-71
2022/08/25 00:40:07;;;;;;;12.63;8.73;;;;;;;16.70;100.00;101215.13;5045995;28;20203;-75
2022/08/25 00:42:33;;;;;;;10.83;8.23;;;;;;;16.67;100.00;101208.19;5024359;28;20199;-74
2022/08/25 00:44:59;;;;;;;13.57;8.40;;;;;;;16.66;100.00;101217.03;5044278;28;20212;-72
2022/08/25 00:47:27;;;;;;;10.53;7.80;;;;;;;16.62;100.00;101212.81;5048342;28;20207;-71
2022/08/25 00:49:56;;;;;;;14.00;8.87;;;;;;;16.58;100.00;101217.34;5045960;28;20208;-73
2022/08/25 00:52:27;;;;;;;12.90;8.50;;;;;;;16.57;100.00;101214.78;5047368;28;20195;-71
2022/08/25 00:54:58;;;;;;;11.63;7.73;;;;;;;16.55;100.00;101214.88;5038750;28;20219;-72
2022/08/25 00:57:28;;;;;;;11.23;7.67;;;;;;;16.55;100.00;101208.72;5049728;28;20211;-71
2022/08/25 00:59:54;;;;;;;9.93;7.53;;;;;;;16.55;100.00;101211.34;5039965;28;20685;-71
2022/08/25 01:02:22;;;;;;;11.50;7.93;;;;;;;16.53;100.00;101205.31;5048025;28;20759;-71
2022/08/25 01:04:49;;;;;;;11.87;8.60;;;;;;;16.51;100.00;101210.63;5050387;28;20266;-74
2022/08/25 01:07:19;;;;;;;13.70;8.60;;;;;;;16.49;100.00;101207.22;5048887;28;20418;-72
2022/08/25 01:09:47;;;;;;;12.97;8.37;;;;;;;16.45;100.00;101203.00;5022984;28;20700;-71
2022/08/25 01:12:15;;;;;;;12.37;8.17;;;;;;;16.42;100.00;101203.97;5049561;28;20187;-71
2022/08/25 01:14:44;;;;;;;12.07;8.50;;;;;;;16.42;100.00;101203.97;5043872;28;20211;-71
2022/08/25 01:17:11;;;;;;;11.63;8.20;;;;;;;16.44;100.00;101196.00;5035963;28;20224;-71
2022/08/25 01:19:37;;;;;;;11.50;7.73;;;;;;;16.42;100.00;101197.84;5040242;28;20204;-71
2022/08/25 01:22:05;;;;;;;12.57;7.57;;;;;;;16.41;100.00;101194.38;5049030;28;20222;-71
2022/08/25 01:24:37;;;;;;;8.83;7.43;;;;;;;16.39;100.00;101184.81;5034779;28;20227;-73
2022/08/25 01:27:05;;;;;;;11.10;8.17;;;;;;;16.38;100.00;101191.03;5036839;28;20215;-72
2022/08/25 01:29:32;;;;;;;14.57;7.60;;;;;;;16.32;100.00;101193.88;5043306;28;20207;-74
2022/08/25 01:32:02;;;;;;;12.97;7.73;;;;;;;16.31;100.00;101186.94;5026111;28;20207;-70
2022/08/25 01:34:30;;;;;;;13.97;8.57;;;;;;;16.30;100.00;101188.69;5040694;28;20223;-73
2022/08/25 01:36:58;;;;;;;9.97;7.87;;;;;;;16.28;100.00;101188.75;5047288;28;20213;-71
2022/08/25 01:39:28;;;;;;;12.13;8.07;;;;;;;16.26;100.00;101187.97;5030785;28;20199;-72
2022/08/25 01:42:08;;;;;;;10.60;7.80;;;;;;;16.26;100.00;101190.59;5043242;28;20203;-73
2022/08/25 01:44:36;;;;;;;11.43;7.40;;;;;;;16.22;100.00;101196.06;5036726;28;20216;-71
2022/08/25 01:47:04;;;;;;;9.43;7.43;;;;;;;16.17;100.00;101193.59;5035216;28;20199;-70
2022/08/25 01:49:31;;;;;;;12.80;7.90;;;;;;;16.17;100.00;101193.59;5041454;28;20234;-70
2022/08/25 01:52:14;;;;;;;10.67;7.30;;;;;;;16.13;100.00;101194.66;5041120;28;20214;-71
2022/08/25 01:54:42;;;;;;;9.70;7.23;;;;;;;16.11;100.00;101185.94;5043045;28;20225;-71
2022/08/25 01:57:08;;;;;;;8.87;6.77;;;;;;;16.11;100.00;101192.97;5021645;28;20204;-72
2022/08/25 01:59:35;;;;;;;9.97;7.27;;;;;;;16.13;100.00;101192.03;5050787;28;20354;-73
2022/08/25 02:02:01;;;;;;;12.10;7.80;;;;;;;16.14;100.00;101188.47;5043714;28;20204;-73
2022/08/25 02:04:30;;;;;;;10.47;7.43;;;;;;;16.11;100.00;101183.31;5037889;28;20216;-71
2022/08/25 02:06:57;;;;;;;10.97;7.50;;;;;;;16.09;100.00;101193.91;5031205;28;20269;-69
2022/08/25 02:09:23;;;;;;;12.47;7.57;;;;;;;16.10;100.00;101194.78;5026353;28;20231;-71
2022/08/25 02:11:51;;;;;;;8.57;7.17;;;;;;;16.08;100.00;101193.97;5044171;28;20748;-72
2022/08/25 02:14:18;;;;;;;9.83;7.00;;;;;;;16.06;100.00;101196.66;5025049;28;20226;-71
2022/08/25 02:16:47;;;;;;;13.67;8.30;;;;;;;16.06;100.00;101190.56;5046664;28;20192;-71
2022/08/25 02:19:15;;;;;;;16.50;8.53;;;;;;;16.05;100.00;101194.94;5047467;28;20225;-70
2022/08/25 02:21:42;;;;;;;12.17;8.77;;;;;;;16.05;100.00;101196.72;5041144;28;20200;-71
2022/08/25 02:24:09;;;;;;;11.87;8.13;;;;;;;16.00;100.00;101188.16;5045059;28;20231;-70
2022/08/25 02:26:36;;;;;;;10.73;7.50;;;;;;;16.00;100.00;101185.53;5043225;28;20602;-72
2022/08/25 02:29:05;;;;;;;10.77;8.07;;;;;;;15.97;100.00;101183.00;5047955;28;20222;-70
2022/08/25 02:31:32;;;;;;;11.57;8.20;;;;;;;15.97;100.00;101180.38;5036311;28;20199;-74
2022/08/25 02:33:58;;;;;;;10.50;7.63;;;;;;;15.93;100.00;101187.53;5044668;28;20319;-70
2022/08/25 02:36:25;;;;;;;11.33;7.60;;;;;;;15.94;100.00;101176.13;5036411;28;20199;-69
2022/08/25 02:38:52;;;;;;;11.07;7.70;;;;;;;15.92;100.00;101182.34;5048901;28;20214;-72
2022/08/25 02:41:22;;;;;;;9.60;7.67;;;;;;;15.88;100.00;101181.59;5021954;28;20195;-69
2022/08/25 02:43:50;;;;;;;10.20;7.33;;;;;;;15.83;100.00;101183.56;5043223;28;20222;-69
2022/08/25 02:46:20;;;;;;;10.17;7.47;;;;;;;15.82;100.00;101177.44;5028918;28;20222;-69
2022/08/25 02:48:47;;;;;;;10.17;7.77;;;;;;;15.80;100.00;101181.06;5038870;28;20195;-70
2022/08/25 02:51:14;;;;;;;15.70;7.73;;;;;;;15.78;100.00;101181.13;5020401;28;20221;-70
2022/08/25 02:53:44;;;;;;;10.73;7.60;;;;;;;15.80;100.00;101178.44;5043566;28;20261;-69
2022/08/25 02:56:11;;;;;;;9.03;7.17;;;;;;;15.80;100.00;101174.03;5040024;28;20207;-70
2022/08/25 02:58:40;;;;;;;8.90;6.90;;;;;;;15.77;100.00;101168.88;5032695;28;20207;-69
2022/08/25 03:01:08;;;;;;;8.67;6.77;;;;;;;15.80;100.00;101179.28;5042980;28;20199;-69
2022/08/25 03:03:36;;;;;;;8.37;6.60;;;;;;;15.77;100.00;101181.19;5041683;28;20245;-72
2022/08/25 03:06:02;;;;;;;8.83;6.53;;;;;;;15.74;100.00;101176.00;5044026;28;20664;-70
2022/08/25 03:08:29;;;;;;;9.83;6.87;;;;;;;15.71;100.00;101179.63;5041443;28;20204;-72
2022/08/25 03:10:56;;;;;;;9.93;7.50;;;;;;;15.71;100.00;101175.22;5044332;28;20216;-70
2022/08/25 03:13:22;;;;;;;9.07;6.60;;;;;;;15.70;100.00;101175.25;5047181;28;20219;-69
2022/08/25 03:15:48;;;;;;;7.50;6.17;;;;;;;15.65;100.00;101170.16;5043851;28;20203;-69
2022/08/25 03:18:15;;;;;;;9.73;6.57;;;;;;;15.67;100.00;101171.00;5049801;28;20227;-72
2022/08/25 03:20:43;;;;;;;12.87;6.77;;;;;;;15.64;100.00;101168.47;5044120;28;20620;-70
2022/08/25 03:23:10;;;;;;;8.23;6.73;;;;;;;15.64;100.00;101173.75;5040234;28;20258;-69
2022/08/25 03:28:23;;;;;;;10.13;6.30;;;;;;;15.61;100.00;101160.72;5048656;28;20276;-70
2022/08/25 03:30:50;;;;;;;8.97;6.47;;;;;;;15.64;100.00;101163.22;5045535;28;20230;-70
2022/08/25 03:33:16;;;;;;;9.73;7.00;;;;;;;15.65;100.00;101154.41;5040494;28;20228;-69
2022/08/25 03:35:44;;;;;;;13.70;7.03;;;;;;;15.60;100.00;101152.88;5028497;28;20196;-69
2022/08/25 03:38:11;;;;;;;9.00;6.93;;;;;;;15.63;100.00;101158.03;5041902;28;20263;-69
2022/08/25 03:40:38;;;;;;;8.73;6.70;;;;;;;15.62;100.00;101162.44;5034494;28;20374;-72
2022/08/25 03:43:05;;;;;;;9.50;6.47;;;;;;;15.59;100.00;101159.06;5030228;28;20212;-68
2022/08/25 03:45:31;;;;;;;12.67;7.67;;;;;;;15.59;100.00;101165.16;5042994;28;20207;-69
2022/08/25 03:47:58;;;;;;;13.17;7.23;;;;;;;15.56;100.00;101165.28;5044637;28;20207;-72
2022/08/25 03:50:25;;;;;;;9.10;7.20;;;;;;;15.55;100.00;101162.72;5050807;28;20257;-71
2022/08/25 03:52:54;;;;;;;9.10;7.00;;;;;;;15.52;100.00;101167.16;5028647;28;20208;-70
2022/08/25 03:55:22;;;;;;;10.90;7.70;;;;;;;15.49;100.00;101162.03;5050050;28;20195;-74
2022/08/25 03:57:48;;;;;;;10.13;7.20;;;;;;;15.46;100.00;101166.53;5048263;28;20553;-73
2022/08/25 04:00:15;;;;;;;13.33;7.83;;;;;;;15.46;100.00;101167.41;5044146;28;20699;-70
2022/08/25 04:02:42;;;;;;;13.40;7.93;;;;;;;15.50;100.00;101169.00;5050836;28;20215;-72
2022/08/25 04:05:09;;;;;;;9.03;7.03;;;;;;;15.51;100.00;101172.47;5047511;28;20199;-74
2022/08/25 04:07:36;;;;;;;10.77;6.80;;;;;;;15.50;100.00;101162.91;5047129;28;20200;-69
2022/08/25 04:10:05;;;;;;;9.37;7.23;;;;;;;15.51;100.00;101165.47;5057942;28;20714;-69
2022/08/25 04:12:31;;;;;;;9.97;7.23;;;;;;;15.53;100.00;101160.13;5040960;28;20250;-70
2022/08/25 04:14:57;;;;;;;9.87;7.53;;;;;;;15.53;100.00;101168.91;5041433;28;20753;-70
2022/08/25 04:17:24;;;;;;;10.10;7.27;;;;;;;15.54;100.00;101169.75;5044541;28;20207;-71
2022/08/25 04:19:51;;;;;;;12.20;7.33;;;;;;;15.54;100.00;101164.50;5046639;28;20195;-69
2022/08/25 04:22:17;;;;;;;10.53;6.97;;;;;;;15.55;100.00;101160.97;5047547;28;20207;-72
2022/08/25 04:24:43;;;;;;;10.77;6.90;;;;;;;15.58;100.00;101155.56;5045090;28;20238;-73
2022/08/25 04:27:11;;;;;;;9.37;6.97;;;;;;;15.59;100.00;101159.91;5043664;28;20202;-71
2022/08/25 04:29:38;;;;;;;12.70;6.93;;;;;;;15.57;100.00;101163.53;5041620;28;20234;-72
2022/08/25 04:32:04;;;;;;;8.47;6.63;;;;;;;15.56;100.00;101167.06;5048808;28;20656;-71
2022/08/25 04:34:31;;;;;;;10.50;6.60;;;;;;;15.64;100.00;101165.00;5042554;28;20692;-70
2022/08/25 04:36:58;;;;;;;7.70;6.50;;;;;;;15.64;100.00;101163.22;5045793;28;20258;-70
2022/08/25 04:39:25;;;;;;;7.20;6.27;;;;;;;15.68;100.00;101166.59;5046726;28;20249;-69
2022/08/25 04:41:51;;;;;;;14.93;6.37;;;;;;;15.71;100.00;101164.69;5042357;28;20206;-69
2022/08/25 04:44:19;;;;;;;10.80;6.67;;;;;;;15.77;100.00;101168.03;5047789;28;20231;-69
2022/08/25 04:46:45;;;;;;;9.07;6.30;;;;;;;15.82;100.00;101166.09;5023980;28;20191;-71
2022/08/25 04:49:12;;;;;;;10.27;6.63;;;;;;;15.86;100.00;101171.13;5045387;28;20312;-69
2022/08/25 04:51:40;;;;;;;10.03;7.33;;;;;;;15.90;100.00;101171.91;5021313;28;20203;-70
2022/08/25 04:54:10;;;;;;;10.13;7.73;;;;;;;15.87;100.00;101167.59;5038260;28;20634;-70
2022/08/25 04:56:39;;;;;;;11.27;7.70;;;;;;;15.95;100.00;101175.19;5042370;28;20245;-73
2022/08/25 04:59:08;;;;;;;9.23;7.17;;;;;;;16.07;100.00;101169.44;5040462;28;20286;-72
2022/08/25 05:01:36;;;;;;;11.37;6.63;;;;;;;16.13;100.00;101172.72;5047780;28;20195;-70
2022/08/25 05:04:05;;;;;;;10.57;7.63;;;;;;;16.15;100.00;101173.56;5045433;28;20219;-72
2022/08/25 05:06:32;;;;;;;12.80;8.40;;;;;;;16.18;100.00;101170.78;5040920;28;20198;-74
2022/08/25 05:09:00;;;;;;;9.93;7.63;;;;;;;16.24;100.00;101175.78;5042355;28;20207;-70
2022/08/25 05:11:26;;;;;;;13.83;8.60;;;;;;;16.32;100.00;101172.84;5040570;28;20223;-72
2022/08/25 05:13:55;;;;;;;10.57;7.83;;;;;;;16.36;100.00;101180.56;5031134;28;20214;-70
2022/08/25 05:16:23;;;;;;;13.33;8.67;;;;;;;16.40;100.00;101178.66;5024564;28;20588;-71
2022/08/25 05:18:51;;;;;;;12.60;8.50;;;;;;;16.46;100.00;101176.63;5043528;28;20818;-73
2022/08/25 05:21:19;;;;;;;13.83;9.60;;;;;;;16.53;100.00;101181.63;5040763;28;20206;-70
2022/08/25 05:23:47;;;;;;;13.47;9.83;;;;;;;16.59;100.00;101181.38;5038941;28;20806;-70
2022/08/25 05:26:15;;;;;;;15.73;9.17;;;;;;;16.62;100.00;101181.22;5044271;28;20668;-71
2022/08/25 05:28:42;;;;;;;13.93;10.70;;;;;;;16.69;100.00;101176.56;5040845;28;20199;-72
2022/08/25 05:31:12;;;;;;;17.33;10.03;;;;;;;16.76;100.00;101184.13;5043396;28;20223;-69
2022/08/25 05:33:40;;;;;;;11.53;8.97;;;;;;;16.84;100.00;101174.13;5033693;28;20223;-73
2022/08/25 05:36:09;;;;;;;13.77;9.77;;;;;;;16.96;100.00;101175.38;5043841;28;20203;-70
2022/08/25 05:38:36;;;;;;;14.47;10.03;;;;;;;17.05;100.00;101187.28;5046245;28;20591;-70
2022/08/25 05:41:09;;;;;;;13.00;8.93;;;;;;;17.16;100.00;101185.03;5047757;28;20245;-70
2022/08/25 05:43:36;;;;;;;14.70;9.87;;;;;;;17.29;100.00;101189.75;5041439;28;20214;-72
2022/08/25 05:46:03;;;;;;;18.07;10.10;;;;;;;17.44;100.00;101177.66;5042713;28;20219;-70
2022/08/25 05:48:30;;;;;;;16.07;10.80;;;;;;;17.61;100.00;101177.75;5049895;28;20391;-70
2022/08/25 05:50:59;;;;;;;14.97;10.47;;;;;;;17.76;100.00;101176.16;5044726;28;20921;-70
2022/08/25 05:53:28;;;;;;;17.10;11.77;;;;;;;17.90;100.00;101175.53;5049248;28;20225;-73
2022/08/25 05:55:57;;;;;;;15.70;10.93;;;;;;;18.01;100.00;101185.56;5042075;28;20195;-74
2022/08/25 05:58:24;;;;;;;14.63;10.50;;;;;;;18.07;100.00;101174.72;5048163;28;20191;-71
2022/08/25 06:00:51;;;;;;;14.37;9.53;;;;;;;18.16;100.00;101182.19;5040791;28;20207;-72
2022/08/25 06:03:17;;;;;;;12.87;9.90;;;;;;;18.22;100.00;101178.38;5040356;28;20545;-73
2022/08/25 06:05:43;;;;;;;15.90;10.33;;;;;;;18.33;100.00;101184.00;5044768;28;20199;-73
2022/08/25 06:08:10;;;;;;;15.97;10.10;;;;;;;18.43;100.00;101164.09;5031565;28;20283;-72
2022/08/25 06:10:38;;;;;;;14.80;10.40;;;;;;;18.55;100.00;101173.19;5041429;28;20566;-70
2022/08/25 06:13:04;;;;;;;14.27;9.57;;;;;;;18.65;100.00;101163.88;5043342;28;20630;-70
2022/08/25 06:15:32;;;;;;;15.57;10.20;;;;;;;18.73;100.00;101176.66;5045925;28;20593;-70
2022/08/25 06:18:00;;;;;;;15.07;9.43;;;;;;;18.82;100.00;101172.72;5043381;28;20219;-70
2022/08/25 06:20:29;;;;;;;11.80;9.40;;;;;;;18.94;100.00;101165.97;5037566;28;20199;-71
2022/08/25 06:22:58;;;;;;;13.77;9.37;;;;;;;19.07;100.00;101167.03;5045447;28;20719;-72
2022/08/25 06:25:26;;;;;;;12.90;9.90;;;;;;;19.11;100.00;101163.28;5041918;28;20211;-70
2022/08/25 06:27:55;;;;;;;13.57;9.07;;;;;;;19.15;100.00;101167.44;5046391;28;20310;-72
2022/08/25 06:30:23;;;;;;;14.20;9.67;;;;;;;19.27;100.00;101171.25;5046896;28;20221;-71
2022/08/25 06:32:49;;;;;;;13.63;10.23;;;;;;;19.34;100.00;101166.47;5044504;28;20198;-70
2022/08/25 06:35:19;;;;;;;10.93;8.83;;;;;;;19.40;100.00;101172.28;5046911;28;20807;-70
2022/08/25 06:37:46;;;;;;;13.60;10.13;;;;;;;19.49;100.00;101169.13;5047348;28;20199;-71
2022/08/25 06:40:14;;;;;;;13.53;9.67;;;;;;;19.62;100.00;101165.81;5042194;28;20199;-70
2022/08/25 06:42:40;;;;;;;15.47;9.27;;;;;;;19.73;100.00;101176.63;5042618;28;20213;-71
2022/08/25 06:45:09;;;;;;;14.10;9.70;;;;;;;19.81;100.00;101161.22;5050063;28;20195;-70
2022/08/25 06:47:36;;;;;;;13.17;9.53;;;;;;;19.90;100.00;101165.16;5046911;28;20289;-70
2022/08/25 06:50:03;;;;;;;14.23;9.27;;;;;;;20.03;100.00;101160.00;5063196;28;20210;-70
2022/08/25 06:52:30;;;;;;;13.83;9.97;;;;;;;20.08;100.00;101159.75;5043712;28;20209;-71
2022/08/25 06:54:56;;;;;;;17.23;10.23;;;;;;;20.13;100.00;101158.53;5032597;28;20223;-71
2022/08/25 06:57:23;;;;;;;11.60;8.90;;;;;;;20.18;100.00;101160.94;5045733;28;20206;-72
2022/08/25 06:59:49;;;;;;;10.13;9.00;;;;;;;20.22;100.00;101160.63;5043781;28;20719;-70
2022/08/25 07:02:17;;;;;;;15.37;9.87;;;;;;;20.28;100.00;101162.09;5051350;28;20207;-70
2022/08/25 07:04:45;;;;;;;13.10;10.07;;;;;;;20.36;100.00;101161.63;5043225;28;20741;-70
2022/08/25 07:07:11;;;;;;;14.27;10.07;;;;;;;20.38;100.00;101168.53;5045128;28;20206;-73
2022/08/25 07:09:37;;;;;;;13.97;10.07;;;;;;;20.41;100.00;101165.72;5021012;28;20207;-72
2022/08/25 07:12:04;;;;;;;15.60;10.20;;;;;;;20.52;100.00;101165.06;5039790;28;20214;-70
2022/08/25 07:14:31;;;;;;;12.53;9.77;;;;;;;20.61;100.00;101172.53;5037596;28;20278;-70
2022/08/25 07:16:58;;;;;;;15.53;10.70;;;;;;;20.69;100.00;101174.72;5047017;28;20241;-72
2022/08/25 07:19:26;;;;;;;12.03;9.70;;;;;;;20.75;100.00;101174.31;5048146;28;20212;-70
2022/08/25 07:21:53;;;;;;;14.87;10.07;;;;;;;20.90;100.00;101169.91;5050300;28;20206;-71
2022/08/25 07:24:20;;;;;;;12.33;8.77;;;;;;;20.91;100.00;101170.75;5050826;28;20303;-71
2022/08/25 07:26:46;;;;;;;13.60;9.87;;;;;;;20.97;100.00;101170.38;5040939;28;20203;-70
2022/08/25 07:29:16;;;;;;;13.73;10.27;;;;;;;21.09;100.00;101161.69;5036337;28;20237;-70
2022/08/25 07:31:43;;;;;;;12.38;9.15;;;;;;;21.17;100.00;101162.03;5042082;28;20548;-71
2022/08/25 07:36:55;;;;;;;15.15;9.55;;;;;;;21.38;100.00;101157.19;5026694;28;20208;-69
2022/08/25 07:39:22;;;;;;;12.25;9.68;;;;;;;21.42;100.00;101157.84;5038799;28;20278;-70
2022/08/25 07:41:49;;;;;;;12.82;9.23;;;;;;;21.54;100.00;101153.59;5042467;28;20199;-73
2022/08/25 07:44:15;;;;;;;12.98;9.63;;;;;;;21.54;100.00;101157.09;5043940;28;20637;-71
2022/08/25 07:46:42;;;;;;;12.45;9.13;;;;;;;21.67;100.00;101151.00;5035714;28;20199;-71
2022/08/25 07:49:09;;;;;;;11.98;8.85;;;;;;;21.74;100.00;101155.00;5041136;28;20294;-73
2022/08/25 07:51:35;;;;;;;12.77;9.63;;;;;;;21.87;100.00;101152.38;5046469;28;20223;-72
2022/08/25 07:54:05;;;;;;;13.70;9.13;;;;;;;21.99;100.00;101151.56;5049882;28;20594;-70
2022/08/25 07:56:31;;;;;;;11.73;9.48;;;;;;;22.06;100.00;101147.56;5030822;28;20190;-73
2022/08/25 07:58:57;;;;;;;13.65;9.13;;;;;;;22.08;100.00;101148.31;5049945;28;20279;-71
2022/08/25 08:01:25;;;;;;;11.77;9.50;;;;;;;22.21;100.00;101160.75;5048358;28;20195;-71
2022/08/25 08:03:52;;;;;;;11.13;8.65;;;;;;;22.31;100.00;101159.22;5019361;28;20238;-71
2022/08/25 08:06:23;;;;;;;13.43;9.60;;;;;;;22.36;100.00;101156.28;5047181;28;20211;-73
2022/08/25 08:08:51;;;;;;;15.13;7.90;;;;;;;22.37;100.00;101161.47;5043297;28;20211;-70
2022/08/25 08:11:21;;;;;;;12.63;7.93;;;;;;;22.41;100.00;101157.66;5048491;28;20246;-70
2022/08/25 08:13:49;;;;;;;11.15;8.55;;;;;;;22.53;100.00;101155.13;5048178;28;20611;-73
2022/08/25 08:16:18;;;;;;;11.73;8.45;;;;;;;22.58;100.00;101148.53;5045521;28;20313;-72
2022/08/25 08:18:45;;;;;;;11.88;8.10;;;;;;;22.75;100.00;101149.19;5052271;28;20199;-70
2022/08/25 08:21:13;;;;;;;11.00;7.90;;;;;;;22.92;100.00;101150.66;5045475;28;20203;-72
2022/08/25 08:23:39;;;;;;;12.40;9.02;;;;;;;22.93;100.00;101152.38;5029773;28;20299;-71
2022/08/25 08:26:06;;;;;;;14.77;9.23;;;;;;;22.99;100.00;101149.25;5049576;28;20202;-71
2022/08/25 08:28:35;;;;;;;11.68;9.00;;;;;;;23.01;100.00;101155.34;5045116;28;20204;-70
2022/08/25 08:31:01;;;;;;;11.88;8.50;;;;;;;23.07;100.00;101149.63;5050963;28;20203;-69
2022/08/25 08:33:28;;;;;;;11.35;8.40;;;;;;;23.17;100.00;101161.31;5048507;28;20218;-72
2022/08/25 08:35:57;;;;;;;10.70;8.60;;;;;;;23.34;100.00;101159.25;5045625;28;20211;-72
2022/08/25 08:38:23;;;;;;;13.45;9.20;;;;;;;23.44;100.00;101162.94;5049177;28;20205;-70
2022/08/25 08:43:51;;;;;;;13.38;9.02;;;;;;;23.52;100.00;101152.63;5027952;28;20362;-70
2022/08/25 08:46:19;;;;;;;14.73;8.95;;;;;;;23.54;100.00;101150.69;5041650;28;20199;-73
2022/08/25 08:49:00;;;;;;;12.98;9.93;;;;;;;23.63;100.00;101152.66;5054266;28;20195;-71
2022/08/25 08:51:31;;;;;;;13.23;9.73;;;;;;;23.56;100.00;101148.75;5047946;28;20222;-70
2022/08/25 08:54:04;;;;;;;16.15;9.48;;;;;;;23.67;100.00;101147.97;5047709;28;20249;-70
2022/08/25 08:56:36;;;;;;;11.50;8.77;;;;;;;23.77;100.00;101150.81;5050266;28;20207;-69
2022/08/25 08:59:09;;;;;;;12.02;9.13;;;;;;;23.81;100.00;101152.31;5040133;28;20218;-70
2022/08/25 09:01:44;;;;;;;15.95;9.60;;;;;;;23.90;100.00;101158.78;5042996;28;20188;-72
2022/08/25 09:04:15;;;;;;;12.48;8.82;;;;;;;23.88;100.00;101150.06;5045944;28;20706;-70
2022/08/25 09:06:44;;;;;;;13.57;9.23;;;;;;;24.05;100.00;101151.47;5030155;28;20688;-74
2022/08/25 09:09:14;;;;;;;12.95;9.52;;;;;;;24.28;100.00;101158.56;5047261;28;20207;-71
2022/08/25 09:11:54;;;;;;;10.73;8.90;;;;;;;24.53;100.00;101154.03;5043407;28;20212;-72
2022/08/25 09:14:37;;;;;;;13.75;9.05;;;;;;;24.73;100.00;101157.84;5056088;28;20710;-71
2022/08/25 09:17:12;;;;;;;12.43;8.88;;;;;;;24.88;100.00;101154.00;5043003;28;20257;-70
2022/08/25 09:20:03;;;;;;;13.90;8.60;;;;;;;24.93;100.00;101154.47;5040075;28;20215;-72
2022/08/25 09:22:43;;;;;;;13.13;8.57;;;;;;;24.94;100.00;101166.88;5046774;28;20782;-71
2022/08/25 09:25:17;;;;;;;12.27;8.77;;;;;;;24.85;100.00;101156.06;5055612;22;20223;-69
2022/08/25 09:27:52;;;;;;;8.88;7.90;;;;;;;24.93;100.00;101156.31;5055473;28;20539;-69
2022/08/25 09:30:22;;;;;;;13.40;9.00;;;;;;;24.71;100.00;101150.00;5064201;28;20877;-69
2022/08/25 09:32:52;;;;;;;12.18;9.02;;;;;;;24.83;100.00;101147.31;5056746;28;20279;-69
2022/08/25 09:35:22;;;;;;;13.80;8.60;;;;;;;25.07;100.00;101144.56;5062275;28;20254;-69
2022/08/25 09:37:59;;;;;;;11.60;8.43;;;;;;;25.25;100.00;101145.78;5060151;28;20579;-69
2022/08/25 09:40:27;;;;;;;10.85;7.45;;;;;;;25.36;100.00;101134.22;5064354;28;20205;-69
2022/08/25 09:42:56;;;;;;;12.73;8.15;;;;;;;25.48;100.00;101145.75;5061925;28;20196;-70
2022/08/25 09:45:39;;;;;;;11.32;8.25;;;;;;;25.38;100.00;101139.44;5062411;28;20230;-71
2022/08/25 09:48:22;;;;;;;13.30;8.27;;;;;;;25.36;100.00;101136.91;5039846;28;20202;-71
2022/08/25 09:50:50;;;;;;;15.07;7.80;;;;;;;25.39;100.00;101133.16;5062817;28;20281;-71
2022/08/25 09:53:17;;;;;;;13.10;8.68;;;;;;;25.25;100.00;101134.25;5067791;28;20728;-70
2022/08/25 09:55:46;;;;;;;12.45;8.43;;;;;;;25.19;100.00;101130.25;5060652;28;20225;-71
2022/08/25 09:58:21;;;;;;;10.50;8.55;;;;;;;25.14;100.00;101121.75;5060532;28;20713;-71
2022/08/25 10:01:03;;;;;;;8.77;7.75;;;;;;;25.22;100.00;101126.47;5062600;28;20362;-71
2022/08/25 10:03:31;;;;;;;13.65;7.80;;;;;;;25.41;100.00;101117.84;5059468;28;20241;-71
2022/08/25 10:06:05;;;;;;;9.13;7.25;;;;;;;25.28;100.00;101118.00;5063849;28;20288;-70
2022/08/25 10:08:34;;;;;;;13.00;7.85;;;;;;;25.23;100.00;101114.84;5062425;28;20207;-68
2022/08/25 10:11:03;;;;;;;12.00;7.70;;;;;;;25.32;100.00;101119.44;5055206;28;20213;-71
2022/08/25 10:13:37;;;;;;;9.25;7.45;;;;;;;25.20;100.00;101115.06;5061784;28;20242;-71
2022/08/25 10:16:09;;;;;;;8.60;7.18;;;;;;;25.23;100.00;101106.81;5062135;28;20709;-70
2022/08/25 10:18:35;;;;;;;8.40;7.38;;;;;;;25.35;100.00;101099.66;5061641;28;20199;-71
2022/08/25 10:21:09;;;;;;;11.45;8.25;;;;;;;25.42;100.00;101101.72;5067020;28;20210;-71
2022/08/25 10:23:40;;;;;;;7.82;6.47;;;;;;;25.58;100.00;101113.81;5063613;28;20192;-71
2022/08/25 10:26:13;;;;;;;10.90;7.97;;;;;;;25.67;100.00;101105.06;5062380;28;20244;-70
2022/08/25 10:28:48;;;;;;;11.50;7.35;;;;;;;25.38;100.00;101099.41;5063367;28;20398;-72
2022/08/25 10:31:23;;;;;;;10.82;6.75;;;;;;;25.36;100.00;101102.22;5060714;28;20218;-69
2022/08/25 10:34:05;;;;;;;11.00;6.15;;;;;;;25.47;100.00;101099.53;5063850;28;20231;-71
2022/08/25 10:36:43;;;;;;;10.30;6.25;;;;;;;25.50;100.00;101091.28;5062126;28;20215;-70
2022/08/25 10:39:25;;;;;;;8.30;7.00;;;;;;;25.61;100.00;101087.72;5066613;28;20212;-71
2022/08/25 10:42:01;;;;;;;11.60;7.10;;;;;;;25.64;100.00;101090.13;5061841;28;20214;-71
2022/08/25 10:47:48;;;;;;;9.98;7.28;;;;;;;25.58;100.00;101089.81;5061374;28;20669;-71
2022/08/25 10:50:24;;;;;;;10.88;7.60;;;;;;;25.70;100.00;101091.47;5056824;28;20673;-70
2022/08/25 10:53:10;;;;;;;8.45;6.88;;;;;;;25.76;100.00;101084.75;5063311;28;20309;-71
2022/08/25 10:55:43;;;;;;;11.73;7.93;;;;;;;25.81;100.00;101088.72;5059657;28;20212;-70
2022/08/25 10:58:23;;;;;;;10.82;7.20;;;;;;;25.88;100.00;101078.38;5059194;28;20202;-70
2022/08/25 11:00:59;;;;;;;11.90;7.72;;;;;;;25.94;100.00;101085.06;5058662;28;20655;-69
2022/08/25 11:03:43;;;;;;;11.10;7.30;;;;;;;25.89;100.00;101067.56;5066426;28;20283;-71
2022/08/25 11:06:17;;;;;;;9.00;7.50;;;;;;;26.02;100.00;101062.06;5063814;28;20238;-67
2022/08/25 11:08:50;;;;;;;12.05;9.68;;;;;;;26.10;100.00;101071.25;5064427;28;20213;-68
2022/08/25 11:11:24;;;;;;;14.52;9.10;;;;;;;26.03;100.00;101060.22;5061195;28;20217;-71
2022/08/25 11:13:55;;;;;;;12.40;8.77;;;;;;;26.09;100.00;101066.91;5066321;28;20210;-70
2022/08/25 11:16:32;;;;;;;10.35;7.35;;;;;;;26.22;100.00;101057.69;5060833;28;20246;-71
2022/08/25 11:19:09;;;;;;;9.10;7.40;;;;;;;26.32;100.00;101055.09;5059257;28;20703;-71
2022/08/25 11:21:44;;;;;;;9.93;7.57;;;;;;;26.35;100.00;101056.63;5072433;28;20433;-67
2022/08/25 11:24:26;;;;;;;10.63;7.38;;;;;;;26.31;100.00;101055.22;5082453;28;20293;-70
2022/08/25 11:26:55;;;;;;;8.82;7.45;;;;;;;26.53;99.08;101055.06;5075343;28;20633;-68
2022/08/25 11:29:26;;;;;;;8.07;6.50;;;;;;;26.46;96.80;101043.19;5079513;28;20605;-69